createdAt,value
2023-01-12T00:01:22.020Z,5.20
2023-01-12T00:03:25.042Z,5.23
2023-01-12T00:05:27.721Z,5.29
2023-01-12T00:07:32.244Z,5.33
2023-01-12T00:09:35.162Z,5.35
2023-01-12T00:11:39.514Z,5.34
2023-01-12T00:13:42.301Z,5.37
2023-01-12T00:16:00.266Z,5.43
2023-01-12T00:18:02.959Z,5.49
2023-01-12T00:20:06.720Z,5.49
2023-01-12T00:22:12.619Z,5.49
2023-01-12T00:24:16.742Z,5.54
2023-01-12T00:26:19.495Z,5.50
2023-01-12T00:28:22.193Z,5.51
2023-01-12T00:30:24.872Z,5.59
2023-01-12T00:32:29.010Z,5.57
2023-01-12T00:34:31.816Z,5.55
2023-01-12T00:36:34.569Z,5.59
2023-01-12T00:38:38.633Z,5.27
2023-01-12T00:40:41.377Z,5.61
2023-01-12T00:43:01.733Z,5.18
2023-01-12T00:45:25.084Z,5.58
2023-01-12T00:47:29.207Z,5.70
2023-01-12T00:49:31.889Z,5.71
2023-01-12T00:51:34.589Z,5.77
2023-01-12T00:53:37.376Z,5.62
2023-01-12T00:55:40.327Z,5.71
2023-01-12T00:57:43.620Z,5.79
2023-01-12T00:59:47.728Z,5.78
2023-01-12T01:01:50.647Z,5.75
2023-01-12T01:03:55.551Z,5.77
2023-01-12T01:06:03.017Z,5.09
2023-01-12T01:08:06.050Z,5.78
2023-01-12T01:10:09.679Z,5.66
2023-01-12T01:12:12.424Z,5.85
2023-01-12T01:14:15.186Z,5.87
2023-01-12T01:16:19.211Z,5.92
2023-01-12T01:18:21.945Z,5.90
2023-01-12T01:20:26.021Z,5.79
2023-01-12T01:22:29.049Z,5.81
2023-01-12T01:24:31.883Z,5.65
2023-01-12T01:26:34.646Z,5.67
2023-01-12T01:28:37.875Z,5.84
2023-01-12T01:30:40.576Z,5.80
2023-01-12T01:32:43.363Z,5.57
2023-01-12T01:34:47.080Z,5.72
2023-01-12T01:36:51.247Z,5.66
2023-01-12T01:38:54.076Z,5.83
2023-01-12T01:40:57.167Z,5.72
2023-01-12T01:43:00.159Z,5.86
2023-01-12T01:45:05.722Z,5.81
2023-01-12T01:47:18.311Z,5.86
2023-01-12T01:49:29.579Z,5.71
2023-01-12T01:51:32.342Z,5.88
2023-01-12T01:53:38.916Z,5.71
2023-01-12T01:55:49.502Z,5.92
2023-01-12T01:57:55.892Z,5.92
2023-01-12T02:00:00.853Z,5.87
2023-01-12T02:02:04.710Z,5.95
2023-01-12T02:04:08.689Z,5.74
2023-01-12T02:06:11.548Z,5.97
2023-01-12T02:08:20.845Z,5.98
2023-01-12T02:10:24.932Z,5.99
2023-01-12T02:12:45.017Z,5.96
2023-01-12T02:15:08.658Z,5.92
2023-01-12T02:17:24.485Z,5.91
2023-01-12T02:19:55.666Z,5.90
2023-01-12T02:22:19.691Z,5.40
2023-01-12T02:24:55.397Z,5.81
2023-01-12T02:27:33.079Z,5.80
2023-01-12T02:30:26.401Z,5.87
2023-01-12T02:32:41.434Z,5.83
2023-01-12T02:34:54.141Z,5.88
2023-01-12T02:37:08.841Z,5.90
2023-01-12T02:39:18.115Z,5.91
2023-01-12T02:41:46.766Z,5.76
2023-01-12T02:43:49.306Z,5.74
2023-01-12T02:45:57.353Z,5.54
2023-01-12T02:48:07.611Z,5.71
2023-01-12T02:50:14.830Z,5.34
2023-01-12T02:52:20.579Z,5.08
2023-01-12T02:54:26.051Z,5.76
2023-01-12T02:56:33.037Z,5.62
2023-01-12T02:58:39.677Z,5.68
2023-01-12T03:00:45.075Z,5.74
2023-01-12T03:02:47.869Z,5.80
2023-01-12T03:04:53.175Z,5.80
2023-01-12T03:07:45.406Z,5.86
2023-01-12T03:09:52.059Z,5.88
2023-01-12T03:12:01.061Z,5.55
2023-01-12T03:14:05.289Z,5.79
2023-01-12T03:16:10.682Z,5.85
2023-01-12T03:18:17.376Z,5.92
2023-01-12T03:20:25.497Z,5.94
2023-01-12T03:22:30.521Z,5.69
2023-01-12T03:24:38.677Z,5.96
2023-01-12T03:26:45.254Z,5.52
2023-01-12T03:28:55.687Z,5.89
2023-01-12T03:31:04.750Z,5.67
2023-01-12T03:33:08.459Z,5.87
2023-01-12T03:35:11.459Z,5.86
2023-01-12T03:37:25.484Z,5.93
2023-01-12T03:39:37.981Z,5.90
2023-01-12T03:41:52.743Z,5.87
2023-01-12T03:44:01.201Z,5.79
2023-01-12T03:46:11.987Z,5.93
2023-01-12T03:48:21.798Z,5.91
2023-01-12T03:50:29.923Z,5.90
2023-01-12T03:52:37.923Z,5.88
2023-01-12T03:54:44.323Z,5.85
2023-01-12T03:56:48.589Z,5.98
2023-01-12T03:58:52.321Z,6.00
2023-01-12T04:00:55.134Z,6.02
2023-01-12T04:03:05.228Z,5.93
2023-01-12T04:05:09.843Z,5.93
2023-01-12T04:07:12.538Z,6.04
2023-01-12T04:09:16.704Z,6.03
2023-01-12T04:11:37.346Z,6.11
2023-01-12T04:13:40.066Z,6.13
2023-01-12T04:15:43.259Z,5.98
2023-01-12T04:17:46.005Z,6.07
2023-01-12T04:19:48.765Z,6.02
2023-01-12T04:22:09.309Z,6.10
2023-01-12T04:24:12.102Z,6.16
2023-01-12T04:26:17.411Z,6.09
2023-01-12T04:28:20.132Z,6.13
2023-01-12T04:30:27.048Z,6.12
2023-01-12T04:32:29.805Z,6.17
2023-01-12T04:34:32.646Z,6.24
2023-01-12T04:36:35.374Z,6.29
2023-01-12T04:38:38.778Z,6.28
2023-01-12T04:40:41.484Z,6.25
2023-01-12T04:43:07.390Z,6.21
2023-01-12T04:45:11.409Z,6.27
2023-01-12T04:47:14.108Z,6.34
2023-01-12T04:49:16.958Z,6.39
2023-01-12T04:51:19.929Z,6.27
2023-01-12T04:53:24.542Z,6.34
2023-01-12T04:55:27.311Z,6.34
2023-01-12T04:57:30.373Z,6.33
2023-01-12T04:59:34.435Z,6.33
2023-01-12T05:01:38.965Z,6.31
2023-01-12T05:03:42.993Z,6.35
2023-01-12T05:05:45.978Z,6.23
2023-01-12T05:08:02.636Z,6.08
2023-01-12T05:10:24.311Z,6.47
2023-01-12T05:12:27.709Z,6.35
2023-01-12T05:14:30.451Z,6.41
2023-01-12T05:16:34.588Z,6.39
2023-01-12T05:18:37.392Z,6.40
2023-01-12T05:20:40.144Z,6.49
2023-01-12T05:22:42.893Z,6.47
2023-01-12T05:24:45.598Z,6.51
2023-01-12T05:26:48.399Z,6.51
2023-01-12T05:28:51.644Z,6.43
2023-01-12T05:30:54.463Z,6.47
2023-01-12T05:32:58.597Z,6.43
2023-01-12T05:35:01.302Z,6.41
2023-01-12T05:37:04.167Z,6.16
2023-01-12T05:39:07.015Z,6.37
2023-01-12T05:41:10.759Z,6.25
2023-01-12T05:43:31.891Z,6.39
2023-01-12T05:45:35.012Z,6.40
2023-01-12T05:47:37.777Z,6.33
2023-01-12T05:49:41.753Z,6.31
2023-01-12T05:51:44.482Z,6.28
2023-01-12T05:53:47.509Z,6.24
2023-01-12T05:55:50.315Z,6.22
2023-01-12T05:57:53.025Z,6.25
2023-01-12T05:59:55.751Z,6.13
2023-01-12T06:01:58.522Z,6.05
2023-01-12T06:04:02.513Z,6.11
2023-01-12T06:06:07.240Z,6.13
2023-01-12T06:08:10.056Z,6.09
2023-01-12T06:10:13.372Z,6.09
2023-01-12T06:12:39.078Z,6.03
2023-01-12T06:14:41.858Z,6.08
2023-01-12T06:16:44.809Z,6.07
2023-01-12T06:18:47.603Z,5.81
2023-01-12T06:20:50.291Z,6.12
2023-01-12T06:22:54.340Z,6.07
2023-01-12T06:24:57.075Z,6.07
2023-01-12T06:26:59.927Z,6.08
2023-01-12T06:29:03.559Z,6.15
2023-01-12T06:31:08.342Z,6.13
2023-01-12T06:33:11.099Z,6.09
2023-01-12T06:35:19.004Z,5.96
2023-01-12T06:37:23.530Z,6.15
2023-01-12T06:39:27.550Z,6.17
2023-01-12T06:41:47.855Z,6.18
2023-01-12T06:43:50.578Z,5.93
2023-01-12T06:45:54.023Z,6.15
2023-01-12T06:47:57.283Z,6.23
2023-01-12T06:50:00.127Z,6.25
2023-01-12T06:52:02.813Z,6.27
2023-01-12T06:54:05.575Z,6.34
2023-01-12T06:56:09.990Z,6.12
2023-01-12T06:58:12.685Z,6.25
2023-01-12T07:00:15.935Z,6.27
2023-01-12T07:02:18.701Z,6.38
2023-01-12T07:04:21.491Z,6.32
2023-01-12T07:06:24.370Z,6.33
2023-01-12T07:08:27.324Z,6.35
2023-01-12T07:10:32.534Z,6.40
2023-01-12T07:12:36.617Z,6.11
2023-01-12T07:14:39.340Z,6.49
2023-01-12T07:16:42.112Z,5.84
2023-01-12T07:18:44.823Z,6.46
2023-01-12T07:20:48.665Z,6.49
2023-01-12T07:22:51.407Z,6.51
2023-01-12T07:24:55.518Z,6.53
2023-01-12T07:26:59.329Z,6.62
2023-01-12T07:29:03.948Z,6.61
2023-01-12T07:31:07.952Z,6.55
2023-01-12T07:33:12.653Z,6.61
2023-01-12T07:35:15.560Z,6.59
2023-01-12T07:37:18.334Z,6.58
2023-01-12T07:39:21.151Z,6.57
2023-01-12T07:41:41.300Z,6.57
2023-01-12T07:43:44.988Z,6.58
2023-01-12T07:45:49.153Z,6.66
2023-01-12T07:47:54.178Z,6.58
2023-01-12T07:49:56.971Z,6.31
2023-01-12T07:51:59.654Z,6.75
2023-01-12T07:54:02.400Z,6.77
2023-01-12T07:56:05.195Z,6.75
2023-01-12T07:58:08.706Z,6.75
2023-01-12T08:00:13.383Z,6.85
2023-01-12T08:02:23.976Z,6.78
2023-01-12T08:04:26.732Z,6.81
2023-01-12T08:06:29.582Z,6.88
2023-01-12T08:08:32.409Z,6.85
2023-01-12T08:10:35.583Z,6.94
2023-01-12T08:12:38.340Z,6.93
2023-01-12T08:14:42.403Z,6.97
2023-01-12T08:16:49.679Z,6.46
2023-01-12T08:18:58.032Z,7.02
2023-01-12T08:21:05.562Z,7.08
2023-01-12T08:23:12.131Z,7.08
2023-01-12T08:25:19.099Z,7.14
2023-01-12T08:27:26.389Z,7.08
2023-01-12T08:29:36.138Z,7.21
2023-01-12T08:31:39.393Z,7.18
2023-01-12T08:33:43.206Z,7.18
2023-01-12T08:35:48.241Z,7.22
2023-01-12T08:37:51.094Z,7.10
2023-01-12T08:39:54.048Z,7.28
2023-01-12T08:41:56.887Z,7.29
2023-01-12T08:44:06.863Z,7.32
2023-01-12T08:46:09.592Z,7.36
2023-01-12T08:48:12.312Z,7.37
2023-01-12T08:50:15.633Z,7.10
2023-01-12T08:52:19.782Z,7.33
2023-01-12T08:54:23.140Z,7.36
2023-01-12T08:56:25.891Z,7.27
2023-01-12T08:58:28.640Z,7.33
2023-01-12T09:00:31.402Z,7.36
2023-01-12T09:02:34.182Z,7.25
2023-01-12T09:04:39.575Z,7.20
2023-01-12T09:06:45.130Z,7.29
2023-01-12T09:08:49.388Z,7.36
2023-01-12T09:10:52.108Z,7.35
2023-01-12T09:12:54.859Z,7.32
2023-01-12T09:14:57.591Z,7.41
2023-01-12T09:17:00.566Z,7.43
2023-01-12T09:19:03.388Z,7.41
2023-01-12T09:21:08.118Z,7.38
2023-01-12T09:23:10.901Z,7.41
2023-01-12T09:25:15.569Z,7.48
2023-01-12T09:27:18.279Z,7.48
2023-01-12T09:29:21.004Z,7.17
2023-01-12T09:31:24.182Z,7.19
2023-01-12T09:33:27.534Z,7.43
2023-01-12T09:35:30.316Z,7.38
2023-01-12T09:37:33.089Z,7.39
2023-01-12T09:39:35.868Z,7.19
2023-01-12T09:41:59.768Z,7.16
2023-01-12T09:44:20.073Z,7.22
2023-01-12T09:46:46.395Z,7.41
2023-01-12T09:48:49.220Z,7.32
2023-01-12T09:50:56.567Z,7.35
2023-01-12T09:53:03.596Z,7.45
2023-01-12T09:55:13.165Z,7.40
2023-01-12T09:57:58.155Z,7.63
2023-01-12T10:00:07.039Z,7.67
2023-01-12T10:02:15.915Z,7.67
2023-01-12T10:04:19.131Z,7.71
2023-01-12T10:06:22.442Z,7.69
2023-01-12T10:08:32.658Z,7.59
2023-01-12T10:10:35.389Z,7.72
2023-01-12T10:12:44.408Z,7.62
2023-01-12T10:15:05.910Z,7.70
2023-01-12T10:17:23.810Z,7.61
2023-01-12T10:19:38.084Z,7.65
2023-01-12T10:21:42.570Z,7.75
2023-01-12T10:23:45.858Z,7.81
2023-01-12T10:25:50.549Z,7.88
2023-01-12T10:27:56.736Z,7.77
2023-01-12T10:29:59.932Z,7.86
2023-01-12T10:32:02.710Z,7.89
2023-01-12T10:34:07.923Z,7.77
2023-01-12T10:36:11.971Z,7.68
2023-01-12T10:38:22.556Z,7.83
2023-01-12T10:40:28.720Z,7.95
2023-01-12T10:42:48.999Z,8.02
2023-01-12T10:45:12.523Z,8.00
2023-01-12T10:47:23.096Z,7.93
2023-01-12T10:49:26.993Z,7.98
2023-01-12T10:51:31.158Z,8.09
2023-01-12T10:53:39.316Z,8.13
2023-01-12T10:55:43.939Z,7.75
2023-01-12T10:57:48.197Z,8.27
2023-01-12T10:59:54.556Z,8.25
2023-01-12T11:02:17.573Z,8.37
2023-01-12T11:04:22.708Z,8.33
2023-01-12T11:06:32.957Z,8.29
2023-01-12T11:08:35.712Z,8.31
2023-01-12T11:10:38.738Z,8.23
2023-01-12T11:12:42.079Z,8.20
2023-01-12T11:14:57.634Z,8.26
2023-01-12T11:17:17.881Z,8.03
2023-01-12T11:19:24.594Z,8.10
2023-01-12T11:21:30.607Z,7.96
2023-01-12T11:23:40.022Z,8.06
2023-01-12T11:25:45.939Z,8.04
2023-01-12T11:27:53.158Z,7.86
2023-01-12T11:29:59.825Z,8.03
2023-01-12T11:32:12.027Z,7.98
2023-01-12T11:34:19.541Z,7.94
2023-01-12T11:36:27.462Z,7.81
2023-01-12T11:38:36.467Z,7.71
2023-01-12T11:40:41.045Z,7.56
2023-01-12T11:43:04.158Z,7.80
2023-01-12T11:45:14.133Z,8.06
2023-01-12T11:47:24.915Z,8.17
2023-01-12T11:49:34.057Z,8.16
2023-01-12T11:51:37.316Z,8.12
2023-01-12T11:53:41.719Z,8.35
2023-01-12T11:56:01.638Z,8.39
2023-01-12T11:58:16.440Z,8.24
2023-01-12T12:00:33.656Z,8.17
2023-01-12T12:02:41.228Z,8.22
2023-01-12T12:04:56.781Z,8.40
2023-01-12T12:07:18.472Z,8.20
2023-01-12T12:09:37.606Z,8.11
2023-01-12T12:11:52.877Z,8.44
2023-01-12T12:14:08.277Z,8.21
2023-01-12T12:16:22.273Z,8.03
2023-01-12T12:18:39.294Z,8.14
2023-01-12T12:20:52.221Z,8.03
2023-01-12T12:23:12.374Z,8.07
2023-01-12T12:25:24.641Z,8.10
2023-01-12T12:27:43.261Z,8.34
2023-01-12T12:30:08.829Z,8.26
2023-01-12T12:32:23.701Z,8.17
2023-01-12T12:34:47.183Z,8.27
2023-01-12T12:36:58.032Z,8.26
2023-01-12T12:39:26.388Z,8.45
2023-01-12T12:41:55.304Z,8.06
2023-01-12T12:44:38.401Z,8.26
2023-01-12T12:46:53.302Z,8.56
2023-01-12T12:49:02.034Z,8.23
2023-01-12T12:51:08.915Z,8.42
2023-01-12T12:53:17.563Z,8.57
2023-01-12T12:55:20.603Z,8.67
2023-01-12T12:57:23.387Z,7.05
2023-01-12T12:59:55.185Z,8.50
2023-01-12T13:01:59.822Z,8.51
2023-01-12T13:04:03.747Z,8.62
2023-01-12T13:06:22.627Z,8.81
2023-01-12T13:08:28.362Z,8.50
2023-01-12T13:10:32.673Z,8.86
2023-01-12T13:12:36.445Z,8.73
2023-01-12T13:14:41.539Z,8.67
2023-01-12T13:16:50.606Z,8.33
2023-01-12T13:19:12.676Z,8.66
2023-01-12T13:21:45.967Z,8.44
2023-01-12T13:23:52.097Z,7.84
2023-01-12T13:25:58.484Z,8.74
2023-01-12T13:28:18.933Z,8.84
2023-01-12T13:30:49.827Z,8.83
2023-01-12T13:32:59.889Z,8.85
2023-01-12T13:35:03.030Z,8.83
2023-01-12T13:37:20.596Z,8.82
2023-01-12T13:39:23.621Z,8.82
2023-01-12T13:41:46.939Z,8.80
2023-01-12T13:43:55.271Z,8.68
2023-01-12T13:46:01.913Z,8.63
2023-01-12T13:48:08.392Z,8.73
2023-01-12T13:50:17.666Z,8.51
2023-01-12T13:52:29.351Z,8.61
2023-01-12T13:54:33.754Z,8.65
2023-01-12T13:56:36.545Z,8.67
2023-01-12T13:58:41.978Z,8.63
2023-01-12T14:00:55.236Z,8.67
2023-01-12T14:02:58.497Z,8.61
2023-01-12T14:05:17.705Z,8.48
2023-01-12T14:07:32.351Z,8.72
2023-01-12T14:09:45.799Z,8.58
2023-01-12T14:12:20.279Z,8.62
2023-01-12T14:14:57.491Z,8.64
2023-01-12T14:17:14.144Z,8.47
2023-01-12T14:19:27.582Z,8.59
2023-01-12T14:21:33.203Z,8.62
2023-01-12T14:23:37.342Z,8.58
2023-01-12T14:25:40.085Z,8.56
2023-01-12T14:27:49.845Z,8.63
2023-01-12T14:29:52.619Z,8.62
2023-01-12T14:31:55.704Z,8.62
2023-01-12T14:34:01.775Z,7.80
2023-01-12T14:36:07.132Z,8.29
2023-01-12T14:38:14.406Z,8.10
2023-01-12T14:40:28.865Z,7.94
2023-01-12T14:42:50.520Z,8.39
2023-01-12T14:45:13.014Z,8.41
2023-01-12T14:47:25.010Z,8.21
2023-01-12T14:49:29.928Z,8.42
2023-01-12T14:51:35.444Z,8.34
2023-01-12T14:53:41.382Z,8.33
2023-01-12T14:55:45.969Z,8.42
2023-01-12T14:57:51.001Z,8.44
2023-01-12T14:59:54.880Z,8.44
2023-01-12T15:02:29.908Z,8.43
2023-01-12T15:04:32.717Z,8.42
2023-01-12T15:06:40.325Z,8.03
2023-01-12T15:08:54.617Z,7.61
2023-01-12T15:11:06.151Z,8.28
2023-01-12T15:13:26.554Z,8.23
2023-01-12T15:15:51.998Z,8.26
2023-01-12T15:18:13.910Z,8.17
2023-01-12T15:20:43.550Z,7.92
2023-01-12T15:23:03.815Z,7.90
2023-01-12T15:25:32.023Z,8.05
2023-01-12T15:27:36.138Z,7.61
2023-01-12T15:29:40.665Z,8.10
2023-01-12T15:31:44.118Z,8.07
2023-01-12T15:33:47.118Z,7.60
2023-01-12T15:35:49.862Z,8.10
2023-01-12T15:37:54.888Z,8.02
2023-01-12T15:39:59.780Z,8.03
2023-01-12T15:42:17.358Z,8.01
2023-01-12T15:44:22.623Z,7.92
2023-01-12T15:46:25.358Z,7.90
2023-01-12T15:48:28.075Z,7.83
2023-01-12T15:50:30.990Z,7.95
2023-01-12T15:52:33.789Z,7.92
2023-01-12T15:54:36.535Z,7.97
2023-01-12T15:56:39.333Z,7.66
2023-01-12T15:58:42.093Z,7.94
2023-01-12T16:00:46.742Z,7.29
2023-01-12T16:02:50.881Z,7.75
2023-01-12T16:04:53.972Z,7.64
2023-01-12T16:06:57.776Z,6.92
2023-01-12T16:09:00.940Z,7.88
2023-01-12T16:11:12.303Z,7.75
2023-01-12T16:13:15.044Z,7.79
2023-01-12T16:15:19.846Z,7.59
2023-01-12T16:17:23.979Z,7.79
2023-01-12T16:19:28.174Z,7.78
2023-01-12T16:21:30.918Z,7.86
2023-01-12T16:23:33.942Z,7.89
2023-01-12T16:25:38.295Z,7.79
2023-01-12T16:27:41.275Z,7.78
2023-01-12T16:29:44.163Z,7.73
2023-01-12T16:31:46.958Z,7.75
2023-01-12T16:33:51.014Z,7.61
2023-01-12T16:35:55.991Z,7.37
2023-01-12T16:37:58.633Z,7.86
2023-01-12T16:40:01.401Z,6.99
2023-01-12T16:42:04.164Z,7.81
2023-01-12T16:44:07.074Z,7.82
2023-01-12T16:46:11.204Z,7.94
2023-01-12T16:48:14.424Z,8.01
2023-01-12T16:50:18.842Z,7.99
2023-01-12T16:52:23.366Z,8.09
2023-01-12T16:54:26.205Z,8.05
2023-01-12T16:56:29.375Z,8.05
2023-01-12T16:58:32.191Z,8.16
2023-01-12T17:00:36.223Z,8.06
2023-01-12T17:02:40.707Z,8.13
2023-01-12T17:04:48.091Z,7.96
2023-01-12T17:06:52.295Z,8.01
2023-01-12T17:08:56.918Z,7.77
2023-01-12T17:11:05.794Z,7.86
2023-01-12T17:13:08.693Z,8.02
2023-01-12T17:15:12.575Z,7.94
2023-01-12T17:17:15.716Z,7.70
2023-01-12T17:19:19.483Z,8.11
2023-01-12T17:21:22.972Z,8.16
2023-01-12T17:23:27.504Z,7.77
2023-01-12T17:25:30.396Z,8.09
2023-01-12T17:27:33.267Z,7.68
2023-01-12T17:29:37.279Z,8.14
2023-01-12T17:31:41.138Z,8.06
2023-01-12T17:33:44.593Z,8.10
2023-01-12T17:35:47.840Z,8.12
2023-01-12T17:37:52.002Z,8.16
2023-01-12T17:39:59.757Z,8.16
2023-01-12T17:42:23.525Z,8.18
2023-01-12T17:44:26.702Z,7.60
2023-01-12T17:46:30.005Z,7.99
2023-01-12T17:48:32.773Z,8.22
2023-01-12T17:50:35.782Z,8.03
2023-01-12T17:52:38.604Z,8.13
2023-01-12T17:54:41.346Z,8.11
2023-01-12T17:56:45.640Z,8.01
2023-01-12T17:58:51.239Z,7.75
2023-01-12T18:00:53.991Z,8.23
2023-01-12T18:02:57.664Z,8.21
2023-01-12T18:05:00.408Z,7.93
2023-01-12T18:07:03.138Z,8.30
2023-01-12T18:09:06.489Z,8.33
2023-01-12T18:11:09.998Z,8.38
2023-01-12T18:13:14.358Z,8.38
2023-01-12T18:15:17.845Z,8.28
2023-01-12T18:17:20.543Z,8.31
2023-01-12T18:19:23.271Z,8.38
2023-01-12T18:21:28.147Z,8.33
2023-01-12T18:23:31.243Z,8.35
2023-01-12T18:25:36.784Z,8.42
2023-01-12T18:27:39.508Z,8.36
2023-01-12T18:29:43.590Z,8.25
2023-01-12T18:31:47.277Z,8.37
2023-01-12T18:33:50.725Z,7.97
2023-01-12T18:35:53.426Z,8.31
2023-01-12T18:37:56.179Z,8.37
2023-01-12T18:39:58.999Z,8.42
2023-01-12T18:42:19.590Z,8.44
2023-01-12T18:44:22.341Z,8.23
2023-01-12T18:46:50.239Z,8.37
2023-01-12T18:48:51.982Z,8.03
2023-01-12T18:51:12.261Z,8.28
2023-01-12T18:53:31.786Z,8.32
2023-01-12T18:55:37.170Z,8.31
2023-01-12T18:57:39.908Z,8.02
2023-01-12T18:59:42.611Z,8.38
2023-01-12T19:01:46.715Z,8.37
2023-01-12T19:03:49.935Z,8.21
2023-01-12T19:06:00.501Z,8.26
2023-01-12T19:08:25.527Z,7.83
2023-01-12T19:10:29.069Z,8.32
2023-01-12T19:12:33.644Z,8.31
2023-01-12T19:14:53.907Z,8.37
2023-01-12T19:17:15.292Z,8.33
2023-01-12T19:19:22.666Z,8.30
2023-01-12T19:21:42.817Z,8.21
2023-01-12T19:24:03.110Z,8.32
2023-01-12T19:26:23.539Z,8.21
2023-01-12T19:28:36.352Z,8.28
2023-01-12T19:30:39.260Z,8.30
2023-01-12T19:32:43.372Z,8.21
2023-01-12T19:34:48.345Z,8.18
2023-01-12T19:36:51.909Z,8.31
2023-01-12T19:38:54.679Z,8.37
2023-01-12T19:41:10.884Z,8.46
2023-01-12T19:43:18.250Z,8.33
2023-01-12T19:45:20.991Z,8.20
2023-01-12T19:47:23.788Z,8.18
2023-01-12T19:49:27.936Z,8.27
2023-01-12T19:51:30.661Z,8.28
2023-01-12T19:53:33.426Z,8.33
2023-01-12T19:55:36.359Z,8.34
2023-01-12T19:57:39.804Z,8.42
2023-01-12T19:59:44.793Z,8.38
2023-01-12T20:01:47.877Z,8.38
2023-01-12T20:03:51.444Z,8.31
2023-01-12T20:05:55.562Z,8.44
2023-01-12T20:07:58.374Z,8.40
2023-01-12T20:10:01.127Z,8.20
2023-01-12T20:12:04.455Z,8.12
2023-01-12T20:14:07.264Z,8.20
2023-01-12T20:16:11.220Z,8.23
2023-01-12T20:18:13.992Z,8.27
2023-01-12T20:20:18.395Z,8.23
2023-01-12T20:22:22.515Z,8.06
2023-01-12T20:24:25.670Z,8.30
2023-01-12T20:26:28.561Z,8.12
2023-01-12T20:28:31.259Z,8.27
2023-01-12T20:30:38.435Z,8.31
2023-01-12T20:32:42.677Z,7.90
2023-01-12T20:34:45.444Z,8.34
2023-01-12T20:36:49.089Z,8.25
2023-01-12T20:38:53.540Z,8.22
2023-01-12T20:40:56.380Z,8.37
2023-01-12T20:42:59.334Z,8.35
2023-01-12T20:45:03.104Z,8.40
2023-01-12T20:47:06.047Z,8.42
2023-01-12T20:49:08.959Z,8.45
2023-01-12T20:51:14.195Z,8.06
2023-01-12T20:53:17.984Z,7.86
2023-01-12T20:55:22.551Z,8.15
2023-01-12T20:57:25.480Z,7.65
2023-01-12T20:59:28.263Z,8.16
2023-01-12T21:01:31.120Z,8.15
2023-01-12T21:03:33.985Z,8.13
2023-01-12T21:05:36.878Z,7.83
2023-01-12T21:07:39.615Z,8.38
2023-01-12T21:09:42.785Z,8.11
2023-01-12T21:11:49.687Z,8.24
2023-01-12T21:13:52.567Z,8.12
2023-01-12T21:15:59.434Z,7.94
2023-01-12T21:18:02.197Z,8.20
2023-01-12T21:20:05.574Z,8.04
2023-01-12T21:22:08.358Z,7.98
2023-01-12T21:24:11.149Z,8.18
2023-01-12T21:26:13.904Z,8.13
2023-01-12T21:28:18.388Z,7.95
2023-01-12T21:30:21.245Z,8.30
2023-01-12T21:32:26.976Z,8.30
2023-01-12T21:34:29.754Z,8.24
2023-01-12T21:36:32.788Z,8.20
2023-01-12T21:38:35.517Z,8.36
2023-01-12T21:40:39.199Z,8.40
2023-01-12T21:42:59.599Z,8.36
2023-01-12T21:45:03.777Z,8.34
2023-01-12T21:47:06.610Z,8.30
2023-01-12T21:49:09.424Z,8.28
2023-01-12T21:51:14.523Z,8.35
2023-01-12T21:53:18.899Z,8.24
2023-01-12T21:55:21.698Z,8.31
2023-01-12T21:57:24.451Z,8.43
2023-01-12T21:59:27.218Z,8.34
2023-01-12T22:01:31.466Z,8.40
2023-01-12T22:03:34.381Z,8.47
2023-01-12T22:05:37.144Z,8.42
2023-01-12T22:07:39.923Z,8.47
2023-01-12T22:09:42.676Z,8.38
2023-01-12T22:11:45.653Z,8.29
2023-01-12T22:13:48.615Z,8.37
2023-01-12T22:15:52.184Z,8.39
2023-01-12T22:17:56.883Z,8.62
2023-01-12T22:19:59.624Z,8.59
2023-01-12T22:22:02.358Z,8.63
2023-01-12T22:24:05.446Z,8.60
2023-01-12T22:26:09.895Z,8.68
2023-01-12T22:28:12.617Z,8.55
2023-01-12T22:30:17.917Z,8.63
2023-01-12T22:32:20.667Z,8.39
2023-01-12T22:34:24.958Z,8.68
2023-01-12T22:36:27.717Z,8.70
2023-01-12T22:38:30.452Z,8.73
2023-01-12T22:40:33.170Z,8.70
2023-01-12T22:42:53.283Z,8.56
2023-01-12T22:44:56.406Z,8.60
2023-01-12T22:46:59.217Z,8.48
2023-01-12T22:49:01.985Z,8.40
2023-01-12T22:51:06.505Z,8.58
2023-01-12T22:53:09.226Z,8.58
2023-01-12T22:55:11.942Z,8.65
2023-01-12T22:57:14.667Z,8.65
2023-01-12T22:59:17.561Z,8.49
2023-01-12T23:01:21.472Z,8.44
2023-01-12T23:03:24.187Z,8.65
2023-01-12T23:05:27.018Z,8.83
2023-01-12T23:07:31.615Z,8.75
2023-01-12T23:09:34.272Z,8.77
2023-01-12T23:11:37.015Z,8.78
2023-01-12T23:13:40.804Z,8.67
2023-01-12T23:15:45.922Z,8.78
2023-01-12T23:17:48.643Z,8.66
2023-01-12T23:19:51.320Z,8.48
2023-01-12T23:21:54.348Z,8.40
2023-01-12T23:23:59.950Z,8.58
2023-01-12T23:26:03.755Z,8.13
2023-01-12T23:28:07.492Z,8.63
2023-01-12T23:30:11.679Z,8.61
2023-01-12T23:32:14.323Z,8.66
2023-01-12T23:34:16.976Z,8.59
2023-01-12T23:36:21.648Z,8.72
2023-01-12T23:38:24.334Z,8.72
2023-01-12T23:40:28.353Z,8.69
2023-01-12T23:42:31.758Z,8.70
2023-01-12T23:44:34.376Z,8.62
2023-01-12T23:46:39.325Z,8.75
2023-01-12T23:48:42.256Z,8.78
2023-01-12T23:50:45.004Z,8.73
2023-01-12T23:52:49.845Z,8.81
2023-01-12T23:54:55.581Z,8.85
2023-01-12T23:56:59.571Z,8.90
2023-01-12T23:59:02.270Z,8.78
